Timeline UpdatesTrip UpdatesNews PostsPvt PostsTravel TipsAdmin PostsConv PostsFollowed PostsChat RequestsBlog PostsPNR Posts

Disclaimer
Search
 
 
Fri Apr 18, 2014 11:00:35 ISTHomeTrainsΣChainsAtlasPNRForumGalleryNewsFAQTripsMembersLoginFeedback
No Recent News for this Train
Other Trains in the News **new
Latest...
.
Thu Nov 14, 2013 (06:37PM)
⇐ Return Journey: Train# 19019

19020/Dehradun - Mumbai Bandra Terminus Express

Apr 15 (1:35PM)
Change Departure Station:
Change Arrival Station:
Post a Train Travel TipPost a Train Travel Tip **new
Post a Comment/Question/Picture/VideoPost a Comment/Question/Picture/Video
Pantry/Catering
✕ NO Pantry Car
✓ Catering Avbl
Loco/Rake Reversals
SRE/Saharanpur Junction (6); LRJ/Laksar Junction (4);
RSA - Rake Sharing
Rake/Coach Composition
LOCO-SLR-HCPV-GEN-GEN-AB1-S1-S2-S3-S4-S5-S6-S7-S8-S9-SLR
Loco
GZB WAP-7 NZM-BDTS. ddn to nzm tkd wdp 3a. By Er...
Read more...
Ankit Shotra Bhagat Entry# 595554
News    PNR    Forum    Time-Table    Availability    Fare Chart    Map    Arr/Dep History    Trips    Gallery    ΣChains    X/O    Timeline    
Travel Time: 2h 30m    -88 halts    Distance: 121 km    Avg Speed: 48 km/hr
Type: Mail/Express
Zone: WR/Western
Departs @ 00:38 (Avg 8m late)
Platform# ???
SMTWTFS
Vapi/VAPI 
Arrives @ 03:08
Platform# ???
SMTWTFS
Vasai Road/BSR 

-88 halts. 16 intermediate Stations between Vapi and Vasai Road

Show ALL intermediate Stations  Show Old Time-Table

#CodeStation NameX/OArrivesAvgDepartsAvgHaltPFDay#KmSpeedElevZoneAddress
1DDNDehradun (4)  -10:35+021-1524.941648mNRDehradun, Uttarakhand
2DWODoiwala  11:04+411:06+42m--1-1505.039484mNRDehradun, Uttarakhand
3RWLRaiwala Junction (2)X  11:38+211:40+152m21-1484.320361mNRRishikesh, Uttarakhand
4MOTCMotichur (1)X  12:00+612:02+82m11-1477.721312mNRHaridwar, Uttarakhand
5HWHaridwar Junction (9)X  12:15+812:45+1030m31-1473.230294mNRHaridwar, Uttarakhand
6JWPJwalapurX  12:53+1212:55+122m--1-1469.221292mNRHaridwar, Uttarakhand
7LRJLaksar Junction (4)X14:00+314:25+525m--1-1446.359238mNRLaksar, Uttarakhand
8RKRoorkee (3)X  14:43+814:45+102m31-1428.542264mNRRoorkee - 247667, Uttarakhand
9SRESaharanpur Junction (6)X15:35+416:05+130m31-1393.846276mNRSaharanpur, Uttar Pradesh
10DBDDeoband (2)X  16:50+516:52+72m21-1359.651258mNRSaharanpur, Uttar Pradesh
11MOZMuzaffarnagar (3)X  17:20+617:22+192m21-1335.567247mNRMuzaffarNagar, Uttar Pradesh
12KATKhatauli (2)  17:42+2217:44+242m11-1313.473239mNRKhatauli, Uttar Pradesh
13MUTMeerut Cantt. (2)  18:08+3118:10+322m11-1284.310230mNRMeerut, Uttar Pradesh
14MTCMeerut City Junction (6)X18:35+1619:20+1045m41-1279.983229mNRMeerut, Uttar Pradesh
15MDNRModinagar (2)X  19:34+1719:36+182m21-1260.567221mNRGhaziabad, Uttar Pradesh
16MUDMuradnagar (2)  19:45+1919:47+192m21-1250.447220mNRGhaziabad, Uttar Pradesh
17GZNNew Ghaziabad (2)X  20:02-20:04-2m21-1238.614213mNRGhaziabad, Uttar Pradesh
18GZBGhaziabad Junction (6)X  20:30+820:32+102m41-1232.745217mNRGhaziabad, Uttar Pradesh
19SBBSahibabad Junction (5)X  20:41+1620:43+162m--1-1226.030209mNRGhaziabad, Uttar Pradesh
20NZMDelhi Hazrat Nizamuddin (7)XO21:15+2021:55+1440m11-1210.025209mNRNizamuddin East/Sarai KaleKhan Bus Terminal, Delhi NCT
21TKDTuglakabad (4)XO  22:18+1522:20+162m--1-1200.328213mNRNear Tughlakabad Metro Station, Delhi NCT
22FDBFaridabad (4)  22:44+1222:46+132m31-1189.240206mNRFaridabad, Haryana
23BVHBallabgarh (5)O  22:58+1223:00+122m--1-1181.135203mNRFaridabad, Haryana
24PWLPalwal (8)X  23:36+523:38+72m--1-1159.985200mNRPalwal, Haryana
25KSVKosi Kalan (3)XO  00:08+2000:10+202m22-1117.529189mNCRKosi Kalan, Uttar Pradesh
26MTJMathura Junction (10)X  01:35+101:45+210m32-1076.080179mNCRMathura, Uttar Pradesh
27BTEBharatpur Junction (5)  02:10+702:15+75m--2-1042.584174mWCRBharatpur, Rajasthan
28BXNBayana Junction (3)XO  02:45+1002:47+122m--2-1000.574198mWCRBayana, Rajasthan
29FSPFateh SinghpuraO  03:03+1403:05+162m--2-980.879223mWCRState Highway 1, Rajasthan
30HANHindaun City (2)  03:15+1803:17+212m--2-967.668230mWCRKarauli, Rajasthan
31SMBJShri Mahabirji (3)O  03:26+2203:28+222m--2-957.549240mWCRKarauli, Rajasthan
32GGCGangapur City (3)  04:10+904:20+1110m--2-923.464270mWCRGangapur, Rajasthan
33NNWNarayanpur Tatwara (2)X  04:36+1304:38+152m--2-906.484256mWCRSawai Madhopur, Rajasthan
34MLZMalarnaX  04:50+1404:52+142m--2-889.665236mWCRSawai Madhopur, Rajasthan
35SWMSawai Madhopur Junction (4)XO  05:20+1105:25+125m--2-859.595266mWCRSawai Madhopur, Rajasthan
36IDGIndargarh Sumerganj Mandi (2)X  05:48+1705:50+192m--2-823.282247mWCRIndargarh, Rajasthan
37LKELakheri (3)  05:58+2006:00+212m--2-812.274228mWCRBundi, Rajasthan
38KPTNKeshorai PatanX  06:38+2406:40+252m--2-765.160243mWCRSH 33, Rajasthan
39GQLGurla  06:48+2806:50+292m--2-757.28251mWCRSH 33, Rajasthan
40KOTAKota Junction (5)X07:30+807:50+1220m22-751.851256mWCRKota, Rajasthan
41DKNTDakaniya Talav (2)  08:01+1708:03+192m22-742.485278mWCRKota, Rajasthan
42DARADaraX  08:30+2208:32+242m--2-704.355354mWCRDara, Rajasthan
43MKXMorak (2)X  08:48+2408:50+242m--2-689.642337mWCRMorak, Rajasthan
44RMARamganj Mandi Junction (3)X  09:03+2209:05+252m--2-680.557358mWCRRamganj Mandi, Rajasthan
45JHWJhalawar Road (3)  09:18+2309:20+242m--2-668.155361mWCRJhalawar City, Rajasthan
46BWMBhawani Mandi (3)X  09:38+2009:40+252m--2-651.676384mWCRBhawani Mandi, Madhya Pradesh
47GOHGaroth (2)  09:58+2610:00+272m12-629.026441mWCRMadhya Pradesh 458880, Madhya Pradesh
48SGZShamgarh (3)X  10:25+1510:30+175m--2-618.267463mWCRMandsaur, Madhya Pradesh
49SVASuwasra (2)  10:42+1910:44+202m--2-604.766450mWCRSuwasra, Madhya Pradesh
50CMUChau Mahla (3)X  10:58+2011:00+212m12-589.435426mWCRJhalawar, Rajasthan
51THURThuriaX  11:24+1111:26+142m--2-575.221430mWCRMDR 45, Madhya Pradesh
52VMAVikramgarh Alot (2)  11:48+511:50+112m12-567.561443mWCRKota Division, Madhya Pradesh
53LNRLuni Richha  12:03+912:05+102m--2-554.328471mWCRAlote, Madhya Pradesh
54MEPMahidpur Road  12:28+012:30+42m--2-543.729493mWCRGogapur, Madhya Pradesh
55NADNagda Junction (4)  13:05+213:15+710m--2-526.675468mWRNagda, Madhya Pradesh
56KUHKhachrod (2)  13:26+913:28+102m--2-512.857497mWRUjjain, Madhya Pradesh
57RNHRunkheraX  13:39+813:41+72m--2-502.363478mWRUjjain, Madhya Pradesh
58BODBangrodX  13:48+813:50+82m--2-495.024484mWRRatlam, Madhya Pradesh
59RTMRatlam Junction (7)X  14:15-114:35+320m42-485.277495mWRRatlam, Madhya Pradesh
60RTIRaoti (2)  14:56+914:58+82m--2-458.271409mWRState Highway 39A, Madhya Pradesh
61BOGBhairongarh (2)  15:08+915:10+82m--2-446.451374mWRBhairongarh Railway Station, Madhya Pradesh
62BMIBamnia (2)  15:17+1015:19+92m--2-440.442392mWRBamnia, Madhya Pradesh
63AGRAmargarh (2)  15:25+1015:27+92m--2-436.257410mWRSH 39A, Madhya Pradesh
64PCNPanch Pipila (2)  15:37+815:39+82m--2-426.884369mWRSH 39A, Madhya Pradesh
65THDRThandla Road (2)  15:49+1015:51+102m--2-412.860317mWRJhabua, Madhya Pradesh
66MGNMeghnagar (3)  15:59+1116:01+122m--2-404.973317mWRJhabua, Madhya Pradesh
67ANASAnas (2)  16:13+1616:15+152m--2-390.379288mWRMadhya Pradesh 389154 ?, Madhya Pradesh
68BIOBordi (2)  16:21+1616:23+152m--2-382.353289mWRNational Highway 59, Gujarat
69DHDDahod (3)  16:35+1916:40+205m--2-371.776313mWRDahod, Gujarat
70LMKLimkheda  17:06+2317:08+232m--2-338.868205mWRLimkheda, Gujarat
71PPDPiplod Junction  17:15+2317:17+232m--2-330.879209mWRPiplod, Gujarat
72SATSant Road (2)X  17:26+2217:28+222m22-319.020169mWROrwara, Gujarat
73GDAGodhra Junction (3)X  18:30+018:35+35m102-298.665122mWRGodhra, Gujarat
74KRSAKharsaliya (2)  18:45+718:47+62m--2-287.885107mWRPanchmahal, Gujarat
75DRLDerolX  18:56+818:58+72m12-275.16881mWRKalol, Gujarat
76CPNChampaner Road JunctionX  19:09+719:11+62m--2-262.67578mWRPanchmahal, Gujarat
77SMLASamlaya Junction (3)X  19:20+719:22+72m--2-251.44867mWRVadodara, Gujarat
78BRCVadodara Junction (7)  19:55+1320:05+1310m32-224.78936mWRVadodara, Gujarat
79MYGMiyagam Karjan (2)  20:25+2120:27+202m--2-194.97229mWRKarjan, Gujarat
80BHBharuch Junction (5)  21:01+2221:03+222m42-154.26219mWRBharuch, Gujarat
81AKVAnkleshwar Junction (4)X  21:12+2421:14+242m22-144.97419mWRAnkleshwar, Gujarat
82KSBKosamba Junction (3)X21:29+1721:31+212m--2-126.33230mWRKosamba, Gujarat
83STSurat (4)X  22:30+222:38+38m22-94.97119mWRSurat 395001, Gujarat
84NVSNavsari (3)  23:03+923:05+102m--2-65.37914mWRNavsari, Gujarat
85BIMBilimora Junction (4)X  23:21+1623:23+162m--2-44.23611mWRBilimora, Gujarat
86BLValsad (3)  23:53+1223:55+192m32-26.23815mWRValsad, Gujarat
87VAPIVapi (3)X  00:36+500:38+82m--30.05727mWRVapi, Gujarat
88PLGPalghar (3)  02:04+1102:06+132m--381.53719mWRPalghar, Maharashtra
89VRVirar (8)  02:56+402:58+62m--3112.7486mWRThane, Maharashtra
90BVIMumbai Borivali (8)  03:30+303:32+52m53138.52319mWRMumbai - 400092, Maharashtra
91BDTSMumbai Bandra Terminus (5)  04:20-3-13157.2-4mWRMumbai 400050, Maharashtra
Scroll to Top
Scroll to Bottom